Saint Thomas, Missouri
Current Conditions -  °F | °C
As of 12:53 AM on Monday 24 Nov 2014 (Local Time) from KJEF Reporting Station
Light Rain Light Rain  
Wind Chill: 33°   Ceiling: 1500
Heat Index: 41°   Visibility: 10mi
Dew Point: 38°   Wind: 15mph
Humidity: 89%   Direction: 310°NW
Pressure: 29.36"   Gusts: 33mph
Location:  38.37°N, 92.22°W
Report Text: KJEF 240653Z AUTO 31013G29KT 10SM -RA BKN015 OVC021 05/03 A2936 RMK AO2 PK WND 31029/0644 SLP933 P0008 T00500033
Loading
Personal Weather Stations






























Interactive Weather Map New forecast layout! Learn more

10-Day Weather Forecast

Advertisements
Track Severe Weather on mobile